createdAt,value
2018-11-14T19:53:29.321Z,996.71
2018-11-14T19:54:29.494Z,996.68
2018-11-14T19:55:29.729Z,996.72
2018-11-14T19:56:29.852Z,996.73
2018-11-14T19:57:30.039Z,996.71
2018-11-14T19:58:30.220Z,996.71
2018-11-14T19:59:30.402Z,996.70
2018-11-14T20:00:30.572Z,996.69
2018-11-14T20:01:30.756Z,996.69
2018-11-14T20:02:30.937Z,996.69
2018-11-14T20:03:31.119Z,996.72
2018-11-14T20:04:31.472Z,996.75
2018-11-14T20:05:31.417Z,996.79
2018-11-14T20:06:31.600Z,996.76
2018-11-14T20:07:31.785Z,996.78
2018-11-14T20:08:32.081Z,996.82
2018-11-14T20:09:32.171Z,996.83
2018-11-14T20:10:32.459Z,996.81
2018-11-14T20:11:32.523Z,996.82
2018-11-14T20:12:32.722Z,996.77
2018-11-14T20:13:32.900Z,996.80
2018-11-14T20:14:33.082Z,996.82
2018-11-14T20:15:33.279Z,996.84
2018-11-14T20:16:33.454Z,996.82
2018-11-14T20:17:33.643Z,996.81
2018-11-14T20:18:33.826Z,996.80
2018-11-14T20:19:34.009Z,996.81
2018-11-14T20:20:34.209Z,996.82
2018-11-14T20:21:34.397Z,996.81
2018-11-14T20:22:34.583Z,996.80
2018-11-14T20:23:34.761Z,996.79
2018-11-14T20:24:35.000Z,996.77
2018-11-14T20:25:35.208Z,996.80
2018-11-14T20:26:35.321Z,996.82
2018-11-14T20:27:35.494Z,996.81
2018-11-14T20:28:35.670Z,996.86
2018-11-14T20:29:35.863Z,996.81
2018-11-14T20:30:36.119Z,996.82
2018-11-14T20:31:36.350Z,996.83
2018-11-14T20:32:36.424Z,996.84
2018-11-14T20:33:36.603Z,996.80
2018-11-14T20:34:36.795Z,996.79
2018-11-14T20:35:36.976Z,996.79
2018-11-14T20:36:37.160Z,996.76
2018-11-14T20:37:37.352Z,996.78
2018-11-14T20:38:37.533Z,996.75
2018-11-14T20:39:37.715Z,996.76
2018-11-14T20:40:37.893Z,996.77
2018-11-14T20:41:38.077Z,996.78
2018-11-14T20:42:38.263Z,996.76
2018-11-14T20:43:38.443Z,996.77
2018-11-14T20:44:38.639Z,996.78
2018-11-14T20:45:38.837Z,996.76
2018-11-14T20:46:39.006Z,996.73
2018-11-14T20:47:39.198Z,996.78
2018-11-14T20:48:39.385Z,996.76
2018-11-14T20:49:39.568Z,996.77
2018-11-14T20:50:39.747Z,996.71
2018-11-14T20:51:39.940Z,996.73
2018-11-14T20:52:40.121Z,996.72
2018-11-14T20:53:40.305Z,996.70
2018-11-14T20:54:40.483Z,996.75
2018-11-14T20:55:40.704Z,996.75
2018-11-14T20:56:40.862Z,996.78
2018-11-14T20:57:41.053Z,996.77
2018-11-14T20:58:41.234Z,996.79
2018-11-14T20:59:41.453Z,996.79
2018-11-14T21:00:41.612Z,996.80
2018-11-14T21:01:41.798Z,996.79
2018-11-14T21:02:42.029Z,996.78
2018-11-14T21:03:42.171Z,996.77
2018-11-14T21:04:42.353Z,996.73
2018-11-14T21:05:42.540Z,996.73
2018-11-14T21:06:42.704Z,996.70
2018-11-14T21:07:42.899Z,996.76
2018-11-14T21:08:43.079Z,996.72
2018-11-14T21:09:43.421Z,996.72
2018-11-14T21:10:43.448Z,996.69
2018-11-14T21:11:43.632Z,996.71
2018-11-14T21:12:43.817Z,996.69
2018-11-14T21:13:43.997Z,996.71
2018-11-14T21:14:44.181Z,996.70
2018-11-14T21:15:44.366Z,996.69
2018-11-14T21:16:44.554Z,996.72
2018-11-14T21:17:44.733Z,996.76
2018-11-14T21:18:44.907Z,996.76
2018-11-14T21:19:45.090Z,996.77
2018-11-14T21:20:45.265Z,996.74
2018-11-14T21:21:45.462Z,996.73
2018-11-14T21:22:45.669Z,996.75
2018-11-14T21:23:45.833Z,996.76
2018-11-14T21:24:46.024Z,996.76
2018-11-14T21:25:46.211Z,996.75
2018-11-14T21:26:46.388Z,996.73
2018-11-14T21:27:46.583Z,996.70
2018-11-14T21:28:46.760Z,996.71
2018-11-14T21:29:47.001Z,996.76
2018-11-14T21:30:47.139Z,996.69
2018-11-14T21:31:47.327Z,996.68
2018-11-14T21:32:47.497Z,996.68
2018-11-14T21:33:47.696Z,996.67
2018-11-14T21:34:47.876Z,996.64
2018-11-14T21:35:48.059Z,996.64
2018-11-14T21:36:48.248Z,996.64
2018-11-14T21:37:48.429Z,996.62
2018-11-14T21:38:48.604Z,996.65
2018-11-14T21:39:48.804Z,996.64
2018-11-14T21:40:48.977Z,996.61
2018-11-14T21:41:49.157Z,996.63
2018-11-14T21:42:49.337Z,996.59
2018-11-14T21:43:49.511Z,996.60
2018-11-14T21:44:49.708Z,996.61
2018-11-14T21:45:49.883Z,996.62
2018-11-14T21:46:50.129Z,996.58
2018-11-14T21:47:50.245Z,996.61
2018-11-14T21:48:50.408Z,996.64
2018-11-14T21:49:50.591Z,996.61
2018-11-14T21:50:50.774Z,996.62
2018-11-14T21:51:50.948Z,996.60
2018-11-14T21:52:51.139Z,996.58
2018-11-14T21:53:51.315Z,996.58
2018-11-14T21:54:51.519Z,996.56
2018-11-14T21:55:51.689Z,996.51
2018-11-14T21:56:51.869Z,996.54
2018-11-14T21:57:52.052Z,996.52
2018-11-14T21:58:52.249Z,996.55
2018-11-14T21:59:52.468Z,996.52
2018-11-14T22:00:52.598Z,996.48
2018-11-14T22:01:52.787Z,996.52
2018-11-14T22:02:52.964Z,996.52
2018-11-14T22:03:53.142Z,996.54
2018-11-14T22:04:53.334Z,996.50
2018-11-14T22:05:53.522Z,996.52
2018-11-14T22:06:53.701Z,996.53
2018-11-14T22:07:53.882Z,996.54
2018-11-14T22:08:54.064Z,996.53
2018-11-14T22:09:54.247Z,996.56
2018-11-14T22:10:54.409Z,996.57
2018-11-14T22:11:54.588Z,996.53
2018-11-14T22:12:54.769Z,996.51
2018-11-14T22:13:54.952Z,996.54
2018-11-14T22:14:55.136Z,996.53
2018-11-14T22:15:55.316Z,996.57
2018-11-14T22:16:55.505Z,996.59
2018-11-14T22:17:55.683Z,996.55
2018-11-14T22:18:55.868Z,996.57
2018-11-14T22:19:56.050Z,996.55
2018-11-14T22:20:56.271Z,996.58
2018-11-14T22:21:56.420Z,996.55
2018-11-14T22:22:56.604Z,996.55
2018-11-14T22:23:56.782Z,996.55
2018-11-14T22:24:56.964Z,996.56
2018-11-14T22:25:57.146Z,996.52
2018-11-14T22:26:57.323Z,996.57
2018-11-14T22:27:57.539Z,996.57
2018-11-14T22:28:57.679Z,996.57
2018-11-14T22:29:57.859Z,996.60
2018-11-14T22:30:58.055Z,996.60
2018-11-14T22:31:58.229Z,996.59
2018-11-14T22:32:58.420Z,996.59
2018-11-14T22:33:58.595Z,996.58
2018-11-14T22:34:58.858Z,996.60
2018-11-14T22:35:58.956Z,996.60
2018-11-14T22:36:59.146Z,996.59
2018-11-14T22:37:59.326Z,996.59
2018-11-14T22:38:59.521Z,996.57
2018-11-14T22:39:59.693Z,996.57
2018-11-14T22:40:59.868Z,996.57
2018-11-14T22:42:00.054Z,996.52
2018-11-14T22:43:00.232Z,996.53
2018-11-14T22:44:00.415Z,996.53
2018-11-14T22:45:00.597Z,996.53
2018-11-14T22:46:00.782Z,996.52
2018-11-14T22:47:00.958Z,996.49
2018-11-14T22:48:01.149Z,996.49
2018-11-14T22:49:01.326Z,996.47
2018-11-14T22:50:01.502Z,996.52
2018-11-14T22:51:01.684Z,996.47
2018-11-14T22:52:01.881Z,996.47
2018-11-14T22:53:02.043Z,996.43
2018-11-14T22:54:02.225Z,996.41
2018-11-14T22:55:02.416Z,996.40
2018-11-14T22:56:02.596Z,996.40
2018-11-14T22:57:02.793Z,996.41
2018-11-14T22:58:02.979Z,996.37
2018-11-14T22:59:03.155Z,996.36
2018-11-14T23:00:03.337Z,996.38
2018-11-14T23:01:03.525Z,996.35
2018-11-14T23:02:03.702Z,996.38
2018-11-14T23:03:03.879Z,996.39
2018-11-14T23:04:04.056Z,996.38
2018-11-14T23:05:04.244Z,996.41
2018-11-14T23:06:04.422Z,996.33
2018-11-14T23:07:04.605Z,996.36
2018-11-14T23:08:04.786Z,996.35
2018-11-14T23:09:04.970Z,996.36
2018-11-14T23:10:05.136Z,996.34
2018-11-14T23:11:05.330Z,996.34
2018-11-14T23:12:05.519Z,996.35
2018-11-14T23:13:05.698Z,996.31
2018-11-14T23:14:05.874Z,996.31
2018-11-14T23:15:06.057Z,996.30
2018-11-14T23:16:06.249Z,996.34
2018-11-14T23:17:06.428Z,996.33
2018-11-14T23:18:06.612Z,996.32
2018-11-14T23:19:06.790Z,996.30
2018-11-14T23:20:06.970Z,996.35
2018-11-14T23:21:07.147Z,996.32
2018-11-14T23:22:07.330Z,996.32
2018-11-14T23:23:07.568Z,996.34
2018-11-14T23:24:07.691Z,996.34
2018-11-14T23:25:07.899Z,996.31
2018-11-14T23:26:08.081Z,996.33
2018-11-14T23:27:08.256Z,996.34
2018-11-14T23:28:08.432Z,996.31
2018-11-14T23:29:08.616Z,996.26
2018-11-14T23:30:08.792Z,996.25
2018-11-14T23:31:08.970Z,996.24
2018-11-14T23:32:09.153Z,996.19
2018-11-14T23:33:09.335Z,996.20
2018-11-14T23:34:09.524Z,996.19
2018-11-14T23:35:09.703Z,996.18
2018-11-14T23:36:09.888Z,996.22
2018-11-14T23:37:10.077Z,996.19
2018-11-14T23:38:10.258Z,996.18
2018-11-14T23:39:10.443Z,996.16
2018-11-14T23:40:10.624Z,996.19
2018-11-14T23:41:10.805Z,996.18
2018-11-14T23:42:10.989Z,996.19
2018-11-14T23:43:11.171Z,996.14
2018-11-14T23:44:11.348Z,996.15
2018-11-14T23:45:11.533Z,996.19
2018-11-14T23:46:11.712Z,996.12
2018-11-14T23:47:11.886Z,996.10
2018-11-14T23:48:12.076Z,996.09
2018-11-14T23:49:12.250Z,996.02
2018-11-14T23:50:12.440Z,996.01
2018-11-14T23:51:12.621Z,996.02
2018-11-14T23:52:12.797Z,995.98
2018-11-14T23:53:12.984Z,995.99
2018-11-14T23:54:13.163Z,995.97
2018-11-14T23:55:13.345Z,995.97
2018-11-14T23:56:13.524Z,995.94
2018-11-14T23:57:13.707Z,995.95
2018-11-14T23:58:13.887Z,995.98
2018-11-14T23:59:14.069Z,995.94
